Raw Table

ID Lat Lon Timestamp date Hdop altitude speed bearing Share
1 43.31852 -0.3661131 1536821428411 2018-09-13T08:50:28+02:00 31.465 0.0 0.0 🔗
2 43.318604 -0.3654161 1536822294386 2018-09-13T09:04:54+02:00 22.0 246.0 2.68 🔗
3 43.318634 -0.365524 1536822305271 2018-09-13T09:05:05+02:00 9.0 263.0 0.56 🔗
4 43.318485 -0.36545694 1536822316284 2018-09-13T09:05:16+02:00 8.0 266.0 1.52 🔗
5 43.318493 -0.36528727 1536822327183 2018-09-13T09:05:27+02:00 7.0 269.0 1.31 🔗
6 43.318516 -0.3651415 1536822337193 2018-09-13T09:05:37+02:00 8.0 269.0 0.55 🔗
7 43.31854 -0.36489743 1536822347358 2018-09-13T09:05:47+02:00 14.0 272.0 2.13 🔗
8 43.31847 -0.36468366 1536822358421 2018-09-13T09:05:58+02:00 10.0 279.0 0.39 🔗
9 43.31849 -0.3646887 1536822369368 2018-09-13T09:06:09+02:00 12.0 280.0 0.28 🔗
10 43.318493 -0.36470464 1536822380373 2018-09-13T09:06:20+02:00 17.0 280.0 0.61 🔗
11 43.31848 -0.36476898 1536822392185 2018-09-13T09:06:32+02:00 33.0 281.0 0.0 🔗
12 43.31848 -0.3647691 1536822404293 2018-09-13T09:06:44+02:00 33.0 281.0 0.0 🔗
13 43.31848 -0.3647016 1536822428409 2018-09-13T09:07:08+02:00 74.0 273.0 0.0 🔗
14 43.31848 -0.3647017 1536822439292 2018-09-13T09:07:19+02:00 74.0 274.0 0.0 🔗
15 43.318684 -0.3648425 1536822459369 2018-09-13T09:07:39+02:00 73.0 289.0 0.0 🔗
16 43.318504 -0.3647171 1536822986948 2018-09-13T09:16:26+02:00 18.241 0.0 0.0 🔗
17 43.489666 -1.4784999 1537016279660 2018-09-15T14:57:59+02:00 12.0 76.0 1.72 🔗
18 43.48981 -1.4786161 1537016289677 2018-09-15T14:58:09+02:00 8.0 66.0 1.66 🔗
19 43.489902 -1.4785069 1537016300706 2018-09-15T14:58:20+02:00 8.0 70.0 1.0 🔗
20 43.490013 -1.4784087 1537016311629 2018-09-15T14:58:31+02:00 14.0 70.0 2.15 🔗
21 43.490097 -1.478394 1537016321733 2018-09-15T14:58:41+02:00 20.0 70.0 0.0 🔗
22 43.490158 -1.4782666 1537016332614 2018-09-15T14:58:52+02:00 22.0 70.0 0.54 🔗
23 43.490425 -1.4782087 1537016342617 2018-09-15T14:59:02+02:00 22.0 68.0 2.05 🔗
24 43.490425 -1.4779744 1537016353586 2018-09-15T14:59:13+02:00 18.0 70.0 0.91 🔗
25 43.490585 -1.4778624 1537016363662 2018-09-15T14:59:23+02:00 13.0 71.0 0.86 🔗
26 43.49072 -1.4778465 1537016373676 2018-09-15T14:59:33+02:00 11.0 68.0 1.5 🔗
27 43.49074 -1.4778913 1537016384648 2018-09-15T14:59:44+02:00 10.0 65.0 1.18 🔗
28 43.49087 -1.4777712 1537016394657 2018-09-15T14:59:54+02:00 10.0 69.0 0.78 🔗
29 43.49087 -1.4777712 1537016394657 2018-09-15T14:59:54+02:00 10.0 69.0 0.78 🔗
30 43.4909 -1.477728 1537016404674 2018-09-15T15:00:04+02:00 11.0 68.0 0.41 🔗
31 43.490925 -1.4777076 1537016415608 2018-09-15T15:00:15+02:00 10.0 69.0 0.39 🔗
32 43.49094 -1.4775418 1537016425617 2018-09-15T15:00:25+02:00 12.0 70.0 1.23 🔗
33 43.490776 -1.4773673 1537016435620 2018-09-15T15:00:35+02:00 15.0 70.0 0.58 🔗
34 43.49072 -1.4771458 1537016445626 2018-09-15T15:00:45+02:00 18.0 70.0 1.61 🔗
35 43.4906 -1.4769499 1537016456618 2018-09-15T15:00:56+02:00 17.0 71.0 1.73 🔗
36 43.490585 -1.476724 1537016466619 2018-09-15T15:01:06+02:00 12.0 70.0 0.67 🔗
37 43.490555 -1.4765909 1537016476743 2018-09-15T15:01:16+02:00 12.0 71.0 1.4 🔗
38 43.490425 -1.4764457 1537016486744 2018-09-15T15:01:26+02:00 11.0 71.0 1.18 🔗
39 43.49049 -1.4762942 1537016497615 2018-09-15T15:01:37+02:00 14.0 70.0 2.69 🔗
40 43.49057 -1.4761412 1537016507645 2018-09-15T15:01:47+02:00 14.0 70.0 0.95 🔗
41 43.490517 -1.4759527 1537016517753 2018-09-15T15:01:57+02:00 17.0 70.0 2.06 🔗
42 43.490517 -1.4759527 1537016517753 2018-09-15T15:01:57+02:00 17.0 70.0 2.06 🔗
43 43.490417 -1.4757648 1537016528624 2018-09-15T15:02:08+02:00 14.0 70.0 2.74 🔗
44 43.490314 -1.4757115 1537016539690 2018-09-15T15:02:19+02:00 15.0 70.0 0.68 🔗
45 43.490192 -1.4756136 1537016550304 2018-09-15T15:02:30+02:00 16.0 70.0 0.8 🔗
46 43.490166 -1.4755963 1537016561291 2018-09-15T15:02:41+02:00 37.0 73.0 0.31 🔗
47 43.489883 -1.4755186 1537016571303 2018-09-15T15:02:51+02:00 34.0 74.0 0.0 🔗
48 43.489777 -1.4756106 1537016581321 2018-09-15T15:03:01+02:00 23.0 74.0 0.56 🔗
49 43.48977 -1.475501 1537016591354 2018-09-15T15:03:11+02:00 13.0 72.0 1.64 🔗
50 43.489708 -1.4754173 1537016601409 2018-09-15T15:03:21+02:00 11.0 58.0 1.22 🔗
51 43.48971 -1.4751773 1537016612394 2018-09-15T15:03:32+02:00 10.0 57.0 1.18 🔗
52 43.48975 -1.4750005 1537016622458 2018-09-15T15:03:42+02:00 10.0 58.0 1.07 🔗
53 43.4897 -1.4748878 1537016633585 2018-09-15T15:03:53+02:00 3.0 54.0 0.61 🔗
54 43.48974 -1.4747386 1537016644438 2018-09-15T15:04:04+02:00 3.0 53.0 1.36 🔗
55 43.489765 -1.4745896 1537016654475 2018-09-15T15:04:14+02:00 3.0 52.0 1.18 🔗
56 43.48979 -1.4744217 1537016664491 2018-09-15T15:04:24+02:00 4.0 53.0 1.09 🔗
57 43.4898 -1.474234 1537016675414 2018-09-15T15:04:35+02:00 4.0 53.0 0.45 🔗
58 43.489822 -1.4742105 1537016686418 2018-09-15T15:04:46+02:00 4.0 51.0 0.37 🔗
59 43.48989 -1.474192 1537016697422 2018-09-15T15:04:57+02:00 5.0 49.0 1.24 🔗
60 43.490017 -1.4741591 1537016708417 2018-09-15T15:05:08+02:00 6.0 49.0 1.44 🔗
61 43.49017 -1.4741694 1537016719413 2018-09-15T15:05:19+02:00 5.0 50.0 0.93 🔗
62 43.490257 -1.4741491 1537016729416 2018-09-15T15:05:29+02:00 9.0 50.0 1.0 🔗
63 43.49044 -1.4740922 1537016740414 2018-09-15T15:05:40+02:00 12.0 48.0 1.22 🔗
64 43.49055 -1.4740753 1537016750419 2018-09-15T15:05:50+02:00 11.0 48.0 0.64 🔗
65 43.490654 -1.4739882 1537016761416 2018-09-15T15:06:01+02:00 11.0 47.0 0.64 🔗
66 43.490776 -1.4739761 1537016771508 2018-09-15T15:06:11+02:00 10.0 46.0 0.99 🔗
67 43.49091 -1.4739486 1537016782416 2018-09-15T15:06:22+02:00 12.0 48.0 0.68 🔗
68 43.49108 -1.4738684 1537016792464 2018-09-15T15:06:32+02:00 13.0 49.0 2.08 🔗
69 43.491135 -1.4738702 1537016802548 2018-09-15T15:06:42+02:00 12.0 47.0 0.58 🔗
70 43.49125 -1.4738405 1537016813496 2018-09-15T15:06:53+02:00 11.0 47.0 0.77 🔗
71 43.49138 -1.4738314 1537016824491 2018-09-15T15:07:04+02:00 11.0 46.0 0.0 🔗
72 43.491528 -1.4738048 1537016834555 2018-09-15T15:07:14+02:00 11.0 46.0 1.73 🔗
73 43.49166 -1.4737669 1537016845406 2018-09-15T15:07:25+02:00 12.0 47.0 0.92 🔗
74 43.491814 -1.4737513 1537016855413 2018-09-15T15:07:35+02:00 12.0 49.0 0.84 🔗
75 43.491936 -1.4738289 1537016866455 2018-09-15T15:07:46+02:00 11.0 48.0 0.44 🔗
76 43.49205 -1.4738711 1537016877403 2018-09-15T15:07:57+02:00 12.0 51.0 0.48 🔗
77 43.49218 -1.4737254 1537016887404 2018-09-15T15:08:07+02:00 13.0 51.0 0.86 🔗
78 43.49235 -1.4737657 1537016897449 2018-09-15T15:08:17+02:00 10.0 55.0 1.23 🔗
79 43.492447 -1.4737006 1537016908379 2018-09-15T15:08:28+02:00 9.0 56.0 1.03 🔗
80 43.49242 -1.4737939 1537016918554 2018-09-15T15:08:38+02:00 10.0 54.0 1.29 🔗
81 43.492332 -1.4739823 1537016929412 2018-09-15T15:08:49+02:00 10.0 53.0 1.18 🔗
82 43.49228 -1.4741313 1537016939510 2018-09-15T15:08:59+02:00 10.0 52.0 0.86 🔗
83 43.492165 -1.4743369 1537016950431 2018-09-15T15:09:10+02:00 11.0 51.0 1.17 🔗
84 43.49215 -1.4745568 1537016961436 2018-09-15T15:09:21+02:00 11.0 50.0 1.53 🔗
85 43.49215 -1.4745941 1537016972375 2018-09-15T15:09:32+02:00 18.0 50.0 0.0 🔗
86 43.491985 -1.4746506 1537016983378 2018-09-15T15:09:43+02:00 12.0 51.0 1.35 🔗
87 43.49195 -1.4749378 1537016993383 2018-09-15T15:09:53+02:00 17.0 52.0 2.11 🔗
88 43.491997 -1.4751278 1537017004373 2018-09-15T15:10:04+02:00 21.0 52.0 1.56 🔗
89 43.491997 -1.4751278 1537017004373 2018-09-15T15:10:04+02:00 21.0 52.0 1.56 🔗
90 43.49179 -1.4750695 1537017014437 2018-09-15T15:10:14+02:00 19.0 53.0 1.29 🔗
91 43.491592 -1.4751326 1537017025418 2018-09-15T15:10:25+02:00 21.0 53.0 0.3 🔗
92 43.491325 -1.4752461 1537017036397 2018-09-15T15:10:36+02:00 16.0 52.0 1.76 🔗
93 43.49126 -1.4754629 1537017047415 2018-09-15T15:10:47+02:00 24.0 51.0 1.55 🔗
94 43.49122 -1.4757138 1537017058407 2018-09-15T15:10:58+02:00 14.0 52.0 1.17 🔗
95 43.49116 -1.4757206 1537017068455 2018-09-15T15:11:08+02:00 12.0 52.0 0.17 🔗
96 43.490986 -1.4759395 1537017078481 2018-09-15T15:11:18+02:00 12.0 51.0 2.57 🔗
97 43.490864 -1.4758873 1537017089464 2018-09-15T15:11:29+02:00 13.0 51.0 1.26 🔗
98 43.490784 -1.4758434 1537017099471 2018-09-15T15:11:39+02:00 14.0 48.0 1.06 🔗
99 43.49075 -1.4758736 1537017110374 2018-09-15T15:11:50+02:00 15.0 50.0 0.0 🔗
100 43.49073 -1.4758688 1537017120399 2018-09-15T15:12:00+02:00 15.0 50.0 0.0 🔗
101 43.490646 -1.4758755 1537017130445 2018-09-15T15:12:10+02:00 17.0 48.0 0.31 🔗
102 43.490387 -1.4758258 1537017141415 2018-09-15T15:12:21+02:00 21.0 49.0 2.38 🔗
103 43.490295 -1.4759278 1537017152179 2018-09-15T15:12:32+02:00 19.0 50.0 0.0 🔗
104 43.49028 -1.4759626 1537017162202 2018-09-15T15:12:42+02:00 17.0 51.0 0.0 🔗
105 43.490307 -1.4759728 1537017173189 2018-09-15T15:12:53+02:00 20.0 51.0 0.47 🔗
106 43.490486 -1.4760842 1537017183198 2018-09-15T15:13:03+02:00 14.0 48.0 0.67 🔗
107 43.49041 -1.4765227 1537017193209 2018-09-15T15:13:13+02:00 21.0 48.0 3.38 🔗
108 43.490353 -1.4767103 1537017204207 2018-09-15T15:13:24+02:00 13.0 57.0 1.33 🔗
109 43.490383 -1.4767548 1537017214416 2018-09-15T15:13:34+02:00 16.0 57.0 0.46 🔗
110 43.490295 -1.4768195 1537017225280 2018-09-15T15:13:45+02:00 14.0 57.0 1.24 🔗
111 43.490177 -1.4767469 1537017236428 2018-09-15T15:13:56+02:00 15.0 57.0 0.0 🔗
112 43.48996 -1.476798 1537017247431 2018-09-15T15:14:07+02:00 13.0 51.0 1.62 🔗
113 43.48985 -1.4768748 1537017258318 2018-09-15T15:14:18+02:00 12.0 50.0 0.51 🔗
114 43.489727 -1.4767606 1537017269402 2018-09-15T15:14:29+02:00 20.0 51.0 1.43 🔗
115 43.489784 -1.476602 1537017280288 2018-09-15T15:14:40+02:00 33.0 51.0 0.96 🔗
116 43.489754 -1.4765949 1537017290426 2018-09-15T15:14:50+02:00 32.0 53.0 0.0 🔗
117 43.48965 -1.4764965 1537017301288 2018-09-15T15:15:01+02:00 22.0 52.0 1.2 🔗
118 43.489567 -1.4762821 1537017311362 2018-09-15T15:15:11+02:00 20.0 52.0 1.29 🔗
119 43.489544 -1.4762499 1537017322284 2018-09-15T15:15:22+02:00 21.0 52.0 1.16 🔗
120 43.489418 -1.4762015 1537017333285 2018-09-15T15:15:33+02:00 22.0 53.0 0.17 🔗
121 43.489426 -1.4762193 1537017343290 2018-09-15T15:15:43+02:00 15.0 51.0 0.71 🔗
122 43.48941 -1.4762554 1537017354450 2018-09-15T15:15:54+02:00 15.0 51.0 0.5 🔗
123 43.489216 -1.4763403 1537017365644 2018-09-15T15:16:05+02:00 17.0 54.0 1.28 🔗
124 43.48914 -1.4763793 1537017376286 2018-09-15T15:16:16+02:00 25.0 40.0 0.0 🔗
125 43.48914 -1.4763736 1537017386295 2018-09-15T15:16:26+02:00 21.0 41.0 0.0 🔗
126 43.48911 -1.4762907 1537017397309 2018-09-15T15:16:37+02:00 19.0 37.0 1.8 🔗
127 43.489117 -1.4763192 1537017408281 2018-09-15T15:16:48+02:00 18.0 38.0 0.0 🔗
128 43.489082 -1.4764681 1537017418287 2018-09-15T15:16:58+02:00 14.0 37.0 1.25 🔗
129 43.489105 -1.4766784 1537017429282 2018-09-15T15:17:09+02:00 19.0 37.0 1.09 🔗
130 43.48893 -1.4766103 1537017439410 2018-09-15T15:17:19+02:00 18.0 37.0 0.28 🔗
131 43.488964 -1.4765749 1537017451283 2018-09-15T15:17:31+02:00 17.0 39.0 0.0 🔗
132 43.48897 -1.4765565 1537017485383 2018-09-15T15:18:05+02:00 56.0 38.0 0.68 🔗
133 43.488876 -1.4766544 1537017495870 2018-09-15T15:18:15+02:00 15.0 72.0 0.47 🔗
134 43.209953 1.0290154 1545471313747 2018-12-22T10:35:13+01:00 9.0 313.0 33.88085 🔗
135 43.24807 1.0942729 1545471512497 2018-12-22T10:38:32+01:00 20.0 296.0 37.020596 🔗